Time;durP1;ratioP1;P1;durP2;ratioP2;P2;SDS_P1;SDS_P2;PMS_P1;PMS_P2;Temp;Humidity;BMP_temperature;BMP_pressure;BME280_temperature;BME280_humidity;BME280_pressure;Samples;Min_cycle;Max_cycle;Signal;HPM_P1;HPM_P2
2022/02/17 00:00:54;;;;;;;58.10;36.05;;;6.20;99.90;;;;;;5097836;28;20177;-91
2022/02/17 00:03:20;;;;;;;52.17;35.17;;;6.20;99.90;;;;;;5104544;28;20244;-91
2022/02/17 00:05:46;;;;;;;55.42;33.13;;;6.20;99.90;;;;;;5105392;28;20177;-87
2022/02/17 00:08:12;;;;;;;51.03;33.33;;;6.20;99.90;;;;;;5097734;28;20196;-87
2022/02/17 00:10:38;;;;;;;50.63;33.47;;;6.20;99.90;;;;;;5097832;28;20211;-87
2022/02/17 00:13:04;;;;;;;54.00;33.85;;;6.20;99.90;;;;;;5084337;28;20625;-87
2022/02/17 00:15:31;;;;;;;54.33;34.40;;;6.20;99.90;;;;;;5100308;28;20265;-87
2022/02/17 00:17:58;;;;;;;52.08;34.80;;;6.20;99.90;;;;;;5117380;28;20184;-87
2022/02/17 00:20:25;;;;;;;47.53;34.10;;;6.10;99.90;;;;;;5111029;28;20187;-91
2022/02/17 00:22:51;;;;;;;52.95;33.83;;;6.10;99.90;;;;;;5110211;28;20575;-87
2022/02/17 00:25:17;;;;;;;55.63;33.90;;;6.10;99.90;;;;;;5112365;28;20180;-88
2022/02/17 00:27:43;;;;;;;51.30;33.33;;;6.00;99.90;;;;;;5093597;28;20422;-91
2022/02/17 00:30:10;;;;;;;54.85;36.85;;;6.00;99.90;;;;;;5095295;28;20176;-88
2022/02/17 00:32:37;;;;;;;53.75;34.03;;;6.00;99.90;;;;;;5110466;28;20212;-86
2022/02/17 00:35:05;;;;;;;48.70;30.98;;;6.00;99.90;;;;;;5110965;28;20216;-91
2022/02/17 00:37:31;;;;;;;49.50;32.33;;;6.00;99.90;;;;;;5099432;28;20192;-86
2022/02/17 00:39:56;;;;;;;56.77;37.23;;;6.00;99.90;;;;;;5101340;28;20179;-87
2022/02/17 00:42:22;;;;;;;55.77;34.27;;;6.00;99.90;;;;;;5101048;28;20192;-91
2022/02/17 00:44:50;;;;;;;54.58;35.53;;;5.90;99.90;;;;;;5117121;28;20273;-87
2022/02/17 00:47:17;;;;;;;53.13;32.88;;;5.90;99.90;;;;;;5100959;28;20220;-87
2022/02/17 00:49:43;;;;;;;56.53;33.83;;;5.90;99.90;;;;;;5117007;28;20518;-91
2022/02/17 00:52:09;;;;;;;55.97;36.00;;;5.90;99.90;;;;;;5099699;28;20199;-87
2022/02/17 00:54:35;;;;;;;57.37;36.90;;;5.90;99.90;;;;;;5099651;28;20268;-91
2022/02/17 00:57:01;;;;;;;60.33;34.63;;;5.90;99.90;;;;;;5101316;28;20172;-87
2022/02/17 00:59:28;;;;;;;62.53;41.33;;;5.90;99.90;;;;;;5100218;28;20412;-86
2022/02/17 01:01:54;;;;;;;77.47;46.63;;;5.80;99.90;;;;;;5101203;28;20260;-90
2022/02/17 01:04:20;;;;;;;70.10;45.17;;;5.80;99.90;;;;;;5101631;28;20187;-88
2022/02/17 01:06:45;;;;;;;56.70;36.30;;;5.80;99.90;;;;;;5102438;28;20557;-91
2022/02/17 01:09:13;;;;;;;56.40;34.87;;;5.70;99.90;;;;;;5104116;28;20177;-90
2022/02/17 01:11:39;;;;;;;61.03;35.83;;;5.70;99.90;;;;;;5127707;28;20733;-87
2022/02/17 01:14:06;;;;;;;64.28;39.40;;;5.70;99.90;;;;;;5108053;28;20236;-90
2022/02/17 01:16:32;;;;;;;62.53;43.28;;;5.60;99.90;;;;;;5090466;28;20200;-89
2022/02/17 01:18:58;;;;;;;69.82;42.03;;;5.60;99.90;;;;;;5101924;28;20191;-87
2022/02/17 01:21:23;;;;;;;68.43;43.93;;;5.50;99.90;;;;;;5099348;28;20226;-90
2022/02/17 01:23:49;;;;;;;75.67;44.93;;;5.50;99.90;;;;;;5082584;28;20258;-86
2022/02/17 01:26:15;;;;;;;72.10;42.37;;;5.40;99.90;;;;;;5104878;28;20203;-89
2022/02/17 01:28:41;;;;;;;62.50;41.92;;;5.40;99.90;;;;;;5102109;28;20432;-87
2022/02/17 01:31:07;;;;;;;63.63;40.40;;;5.30;99.90;;;;;;5100956;28;20179;-90
2022/02/17 01:33:34;;;;;;;61.90;40.50;;;5.30;99.90;;;;;;5100658;28;20196;-87
2022/02/17 01:36:06;;;;;;;68.38;42.58;;;5.30;99.90;;;;;;5082767;28;20436;-87
2022/02/17 01:38:35;;;;;;;66.82;42.88;;;5.30;99.90;;;;;;5100603;28;20605;-87
2022/02/17 01:41:02;;;;;;;70.25;43.17;;;5.20;99.90;;;;;;5100669;28;20164;-91
2022/02/17 01:43:28;;;;;;;62.75;40.33;;;5.20;99.90;;;;;;5082545;28;20207;-91
2022/02/17 01:45:54;;;;;;;60.83;38.63;;;5.10;99.90;;;;;;5082588;28;20629;-91
2022/02/17 01:48:19;;;;;;;68.10;38.60;;;5.10;99.90;;;;;;5097604;28;20201;-87
2022/02/17 01:50:45;;;;;;;68.90;40.70;;;5.10;99.90;;;;;;5097033;28;20180;-87
2022/02/17 01:53:12;;;;;;;72.67;40.57;;;5.10;99.90;;;;;;5098217;28;20538;-91
2022/02/17 01:55:43;;;;;;;69.97;39.47;;;5.10;99.90;;;;;;5079985;28;20257;-92
2022/02/17 01:58:09;;;;;;;62.25;36.97;;;5.10;99.90;;;;;;5079108;28;20208;-88
2022/02/17 02:00:35;;;;;;;58.93;35.50;;;5.10;99.90;;;;;;5097707;28;20176;-90
2022/02/17 02:03:01;;;;;;;62.60;39.30;;;5.20;99.90;;;;;;5097467;28;20261;-91
2022/02/17 02:05:26;;;;;;;55.40;34.23;;;5.20;99.90;;;;;;5079695;28;20180;-91
2022/02/17 02:07:52;;;;;;;57.73;36.70;;;5.20;99.90;;;;;;5096291;28;20295;-87
2022/02/17 02:10:18;;;;;;;45.17;26.50;;;5.20;99.90;;;;;;5079504;28;20419;-87
2022/02/17 02:12:44;;;;;;;65.40;39.80;;;5.20;99.90;;;;;;5097418;28;20236;-90
2022/02/17 02:15:09;;;;;;;57.93;33.67;;;5.20;99.90;;;;;;5096155;28;20609;-90
2022/02/17 02:17:40;;;;;;;56.87;34.00;;;5.10;99.90;;;;;;5096513;28;20205;-87
2022/02/17 02:20:07;;;;;;;62.50;38.40;;;5.10;99.90;;;;;;5097944;28;20559;-87
2022/02/17 02:22:33;;;;;;;71.88;42.92;;;5.10;99.90;;;;;;5079672;28;20204;-90
2022/02/17 02:25:00;;;;;;;61.97;39.35;;;5.10;99.90;;;;;;5096074;28;20184;-91
2022/02/17 02:27:28;;;;;;;60.13;34.55;;;5.00;99.90;;;;;;5096953;28;20569;-86
2022/02/17 02:29:54;;;;;;;62.88;40.33;;;5.00;99.90;;;;;;5079115;28;20181;-86
2022/02/17 02:32:20;;;;;;;64.65;36.50;;;5.00;99.90;;;;;;5079327;28;20199;-90
2022/02/17 02:34:45;;;;;;;69.17;40.90;;;5.00;99.90;;;;;;5097413;28;20564;-91
2022/02/17 02:37:11;;;;;;;62.43;39.27;;;5.10;99.90;;;;;;5079379;28;20261;-87
2022/02/17 02:39:37;;;;;;;71.87;40.83;;;5.10;99.90;;;;;;5096241;28;20188;-91
2022/02/17 02:42:04;;;;;;;64.80;39.42;;;5.10;99.90;;;;;;5096100;28;20208;-86
2022/02/17 02:44:30;;;;;;;68.90;42.28;;;5.10;99.90;;;;;;5079835;28;20177;-90
2022/02/17 02:46:56;;;;;;;65.93;40.28;;;5.10;99.90;;;;;;5098233;28;20185;-90
2022/02/17 02:49:22;;;;;;;61.70;39.97;;;5.10;99.90;;;;;;5090516;28;20204;-87
2022/02/17 02:51:48;;;;;;;61.75;42.70;;;5.20;99.90;;;;;;5094713;28;20176;-91
2022/02/17 02:54:14;;;;;;;72.22;45.25;;;5.20;99.90;;;;;;5096486;28;20216;-86
2022/02/17 02:56:40;;;;;;;64.93;41.40;;;5.20;99.90;;;;;;5095129;28;20187;-91
2022/02/17 02:59:06;;;;;;;59.05;35.70;;;5.20;99.90;;;;;;5098310;28;20407;-91
2022/02/17 03:01:32;;;;;;;62.47;40.90;;;5.20;99.90;;;;;;5104930;28;20173;-87
2022/02/17 03:03:59;;;;;;;73.20;44.20;;;5.20;99.90;;;;;;5083185;28;20620;-91
2022/02/17 03:06:25;;;;;;;68.85;39.40;;;5.20;99.90;;;;;;5084589;28;20185;-91
2022/02/17 03:08:51;;;;;;;73.82;43.65;;;5.30;99.90;;;;;;5106641;28;20196;-87
2022/02/17 03:11:16;;;;;;;59.43;37.43;;;5.30;99.90;;;;;;5078485;28;20184;-87
2022/02/17 03:13:42;;;;;;;72.03;40.20;;;5.30;99.90;;;;;;5106757;28;20244;-91
2022/02/17 03:16:08;;;;;;;68.90;39.60;;;5.30;99.90;;;;;;5095532;28;20337;-91
2022/02/17 03:18:34;;;;;;;61.60;38.93;;;5.20;99.90;;;;;;5096396;28;20192;-91
2022/02/17 03:20:59;;;;;;;71.47;42.30;;;5.20;99.90;;;;;;5095811;28;20172;-86
2022/02/17 03:23:25;;;;;;;60.90;38.30;;;5.20;99.90;;;;;;5096672;28;20285;-91
2022/02/17 03:25:51;;;;;;;67.33;42.40;;;5.20;99.90;;;;;;5095619;28;20181;-87
2022/02/17 03:28:17;;;;;;;70.57;44.17;;;5.20;99.90;;;;;;5095364;28;20196;-87
2022/02/17 03:30:42;;;;;;;68.20;42.20;;;5.20;99.90;;;;;;5095510;28;20272;-87
2022/02/17 03:33:09;;;;;;;71.37;44.57;;;5.20;99.90;;;;;;5096671;28;20611;-91
2022/02/17 03:35:34;;;;;;;70.55;41.25;;;5.10;99.90;;;;;;5095875;28;20216;-89
2022/02/17 03:38:00;;;;;;;63.33;39.83;;;5.10;99.90;;;;;;5095249;28;20200;-87
2022/02/17 03:40:26;;;;;;;66.73;41.53;;;5.10;99.90;;;;;;5097023;28;20255;-91
2022/02/17 03:42:52;;;;;;;74.33;44.50;;;5.10;99.90;;;;;;5095389;28;20207;-87
2022/02/17 03:45:17;;;;;;;74.40;43.73;;;5.10;99.90;;;;;;5096007;28;20200;-92
2022/02/17 03:47:43;;;;;;;84.20;45.63;;;5.20;99.90;;;;;;5096465;28;20188;-91
2022/02/17 03:50:10;;;;;;;74.83;46.37;;;5.20;99.90;;;;;;5096397;28;20229;-87
2022/02/17 03:52:37;;;;;;;155.63;84.47;;;5.20;99.90;;;;;;5111724;28;20200;-91
2022/02/17 03:55:04;;;;;;;558.30;248.63;;;5.30;99.90;;;;;;5112164;28;20244;-87
2022/02/17 03:57:30;;;;;;;125.13;60.47;;;5.40;99.90;;;;;;5112097;28;20204;-87
2022/02/17 03:59:56;;;;;;;70.65;42.60;;;5.40;99.90;;;;;;5094696;28;20270;-91
2022/02/17 04:02:22;;;;;;;67.63;39.30;;;5.40;99.90;;;;;;5097769;28;20234;-90
2022/02/17 04:04:47;;;;;;;59.65;39.78;;;5.50;99.90;;;;;;5099380;28;20180;-91
2022/02/17 04:07:16;;;;;;;61.90;40.40;;;5.50;99.90;;;;;;5099298;28;20665;-88
2022/02/17 04:09:41;;;;;;;63.17;38.17;;;5.50;99.90;;;;;;5098999;28;20509;-91
2022/02/17 04:12:08;;;;;;;59.83;37.87;;;5.50;99.90;;;;;;5112638;28;20203;-87
2022/02/17 04:14:33;;;;;;;66.82;39.75;;;5.50;99.90;;;;;;5078769;28;20454;-87
2022/02/17 04:16:59;;;;;;;53.40;30.77;;;5.50;99.90;;;;;;5077987;28;20268;-87
2022/02/17 04:19:26;;;;;;;66.45;37.00;;;5.50;99.90;;;;;;5096326;28;20202;-91
2022/02/17 04:21:53;;;;;;;61.42;34.25;;;5.50;99.90;;;;;;5079707;28;20717;-87
2022/02/17 04:24:19;;;;;;;67.97;40.95;;;5.60;99.90;;;;;;5079287;28;20184;-87
2022/02/17 04:26:44;;;;;;;63.23;40.07;;;5.60;99.90;;;;;;5095216;28;20179;-87
2022/02/17 04:29:10;;;;;;;60.87;35.03;;;5.60;99.90;;;;;;5100404;28;20207;-87
2022/02/17 04:31:36;;;;;;;61.90;39.50;;;5.60;99.90;;;;;;5097672;28;20184;-88
2022/02/17 04:34:02;;;;;;;62.30;39.17;;;5.60;99.90;;;;;;5099812;28;20232;-87
2022/02/17 04:36:28;;;;;;;58.03;36.75;;;5.70;99.90;;;;;;5080415;28;20181;-87
2022/02/17 04:38:54;;;;;;;59.70;38.90;;;5.70;99.90;;;;;;5093084;28;20698;-91
2022/02/17 04:44:05;;;;;;;59.08;36.45;;;5.80;99.90;;;;;;5094351;28;20214;-87
2022/02/17 04:46:31;;;;;;;56.77;33.00;;;5.80;99.90;;;;;;5094009;28;20256;-86
2022/02/17 04:48:57;;;;;;;58.33;35.00;;;5.80;99.90;;;;;;5082987;28;20399;-90
2022/02/17 04:51:23;;;;;;;48.35;32.03;;;5.90;99.90;;;;;;5080109;28;20176;-91
2022/02/17 04:53:49;;;;;;;50.17;31.20;;;5.90;99.90;;;;;;5092979;28;20253;-86
2022/02/17 04:56:14;;;;;;;53.60;30.37;;;5.90;99.90;;;;;;5094525;28;20394;-86
2022/02/17 04:58:41;;;;;;;50.20;34.63;;;6.00;99.90;;;;;;5093934;28;20192;-87
2022/02/17 05:01:07;;;;;;;49.42;33.53;;;6.00;99.90;;;;;;5073949;28;20188;-90
2022/02/17 05:03:32;;;;;;;50.00;31.83;;;6.00;99.90;;;;;;5071579;28;20269;-87
2022/02/17 05:05:59;;;;;;;51.53;33.53;;;6.00;99.90;;;;;;5080303;28;20432;-91
2022/02/17 05:08:24;;;;;;;52.38;35.17;;;6.10;99.90;;;;;;5084277;28;20199;-88
2022/02/17 05:10:50;;;;;;;52.10;34.50;;;6.10;99.90;;;;;;5090197;28;20189;-91
2022/02/17 05:13:16;;;;;;;48.40;30.87;;;6.10;99.90;;;;;;5098540;28;20243;-90
2022/02/17 05:15:43;;;;;;;53.97;33.40;;;6.10;99.90;;;;;;5093082;28;20442;-91
2022/02/17 05:18:09;;;;;;;54.13;35.47;;;6.20;99.90;;;;;;5079626;28;21023;-91
2022/02/17 05:20:35;;;;;;;54.90;33.13;;;6.20;99.90;;;;;;5075503;28;20227;-91
2022/02/17 05:23:01;;;;;;;47.57;30.90;;;6.20;99.90;;;;;;5074910;28;20200;-87
2022/02/17 05:25:28;;;;;;;52.08;30.30;;;6.20;99.90;;;;;;5078876;28;20475;-91
2022/02/17 05:27:54;;;;;;;53.45;31.40;;;6.30;99.90;;;;;;5077952;28;20333;-87
2022/02/17 05:30:20;;;;;;;47.80;30.03;;;6.30;99.90;;;;;;5095614;28;20209;-90
2022/02/17 05:32:46;;;;;;;49.10;28.08;;;6.30;99.90;;;;;;5079069;28;20445;-91
2022/02/17 05:35:12;;;;;;;46.83;34.13;;;6.30;99.90;;;;;;5091199;28;20216;-87
2022/02/17 05:37:39;;;;;;;40.08;25.52;;;6.30;99.90;;;;;;5086496;28;20689;-88
2022/02/17 05:40:08;;;;;;;39.53;29.20;;;6.40;99.90;;;;;;5069218;28;20183;-91
2022/02/17 05:42:34;;;;;;;38.95;28.10;;;6.40;99.90;;;;;;5078081;28;20204;-87
2022/02/17 05:45:00;;;;;;;44.00;31.63;;;6.40;99.90;;;;;;5097598;28;20630;-89
2022/02/17 05:47:26;;;;;;;47.10;32.03;;;6.40;99.90;;;;;;5097862;28;20211;-91
2022/02/17 05:49:52;;;;;;;47.28;29.42;;;6.40;99.90;;;;;;5079000;28;20545;-87
2022/02/17 05:52:18;;;;;;;47.90;33.70;;;6.40;99.90;;;;;;5080208;28;20208;-90
2022/02/17 05:54:44;;;;;;;43.40;31.52;;;6.40;99.90;;;;;;5099016;28;20220;-91
2022/02/17 05:57:10;;;;;;;56.70;35.03;;;6.50;99.90;;;;;;5097715;28;20223;-87
2022/02/17 05:59:38;;;;;;;49.63;33.50;;;6.50;99.90;;;;;;5090360;28;20445;-91
2022/02/17 06:02:07;;;;;;;39.95;26.05;;;6.50;99.90;;;;;;5066313;28;20441;-91
2022/02/17 06:04:33;;;;;;;49.67;33.70;;;6.60;99.90;;;;;;5079859;28;21396;-86
2022/02/17 06:06:58;;;;;;;52.20;33.37;;;6.60;99.90;;;;;;5080594;28;20191;-86
2022/02/17 06:09:24;;;;;;;45.73;29.27;;;6.50;99.90;;;;;;5084858;28;20630;-87
2022/02/17 06:11:50;;;;;;;48.53;32.63;;;6.60;99.90;;;;;;5076201;28;20740;-91
2022/02/17 06:14:16;;;;;;;44.83;30.23;;;6.60;99.90;;;;;;5106823;28;20255;-87
2022/02/17 06:16:41;;;;;;;48.50;32.30;;;6.60;99.90;;;;;;5093262;28;21115;-86
2022/02/17 06:19:07;;;;;;;51.70;32.63;;;6.60;99.90;;;;;;5094007;28;20195;-87
2022/02/17 06:21:33;;;;;;;52.70;33.10;;;6.70;99.90;;;;;;5095267;28;20184;-87
2022/02/17 06:23:58;;;;;;;52.93;33.50;;;6.60;99.90;;;;;;5093579;28;20420;-87
2022/02/17 06:26:24;;;;;;;48.10;31.50;;;6.70;99.90;;;;;;5094898;28;20263;-91
2022/02/17 06:28:50;;;;;;;53.27;32.90;;;6.70;99.90;;;;;;5095525;28;20200;-87
2022/02/17 06:31:18;;;;;;;50.23;30.77;;;6.70;99.90;;;;;;5095824;28;20474;-87
2022/02/17 06:33:44;;;;;;;43.08;24.27;;;6.70;99.90;;;;;;5095543;28;20254;-86
2022/02/17 06:36:15;;;;;;;43.67;29.08;;;6.80;99.90;;;;;;5093355;28;20227;-91
2022/02/17 06:38:41;;;;;;;43.55;28.58;;;6.80;99.90;;;;;;5095678;28;20295;-92
2022/02/17 06:41:07;;;;;;;43.35;30.00;;;6.80;99.90;;;;;;5080668;28;20185;-88
2022/02/17 06:43:35;;;;;;;41.67;27.58;;;6.90;99.90;;;;;;5092326;28;20227;-91
2022/02/17 06:46:00;;;;;;;45.97;30.63;;;6.90;99.90;;;;;;5095877;28;20658;-87
2022/02/17 06:48:26;;;;;;;46.50;30.87;;;6.90;99.90;;;;;;5090555;28;20283;-91
2022/02/17 06:50:52;;;;;;;34.50;22.60;;;6.90;99.90;;;;;;5094321;28;20203;-87
2022/02/17 06:53:18;;;;;;;49.93;31.80;;;6.90;99.90;;;;;;5088568;28;20336;-90
2022/02/17 06:55:45;;;;;;;45.63;28.88;;;7.00;99.90;;;;;;5093838;28;20447;-87
2022/02/17 06:58:12;;;;;;;53.00;31.20;;;6.90;99.90;;;;;;5100209;28;20203;-91
2022/02/17 07:00:37;;;;;;;46.65;32.95;;;6.90;99.90;;;;;;5093454;28;20534;-91
2022/02/17 07:03:06;;;;;;;48.53;32.73;;;6.90;99.90;;;;;;5095623;28;20204;-87
2022/02/17 07:05:33;;;;;;;45.47;30.98;;;6.90;99.90;;;;;;5097070;28;20188;-91
2022/02/17 07:07:59;;;;;;;43.28;30.00;;;6.90;99.90;;;;;;5094229;28;20200;-91
2022/02/17 07:13:10;;;;;;;47.80;32.15;;;6.80;99.90;;;;;;5093135;28;20707;-87
2022/02/17 07:15:36;;;;;;;46.70;29.05;;;6.80;99.90;;;;;;5102013;28;20216;-87
2022/02/17 07:18:08;;;;;;;43.63;29.48;;;6.80;99.90;;;;;;5077888;28;20264;-87
2022/02/17 07:20:36;;;;;;;45.03;26.65;;;6.80;99.90;;;;;;5094739;28;20642;-91
2022/02/17 07:23:03;;;;;;;45.47;30.70;;;6.80;99.90;;;;;;5107022;28;20188;-86
2022/02/17 07:25:28;;;;;;;33.53;23.23;;;6.80;99.90;;;;;;5082108;28;20652;-89
2022/02/17 07:27:54;;;;;;;43.87;30.10;;;6.80;99.90;;;;;;5093303;28;20200;-87
2022/02/17 07:30:21;;;;;;;44.30;29.35;;;6.80;99.90;;;;;;5068591;28;20433;-86
2022/02/17 07:32:46;;;;;;;30.30;17.73;;;6.80;99.90;;;;;;5070679;28;20220;-87
2022/02/17 07:35:12;;;;;;;41.50;28.67;;;6.90;99.90;;;;;;5090098;28;20231;-87
2022/02/17 07:37:39;;;;;;;38.87;24.80;;;6.90;99.90;;;;;;5092304;28;20205;-91
2022/02/17 07:40:07;;;;;;;31.52;22.58;;;6.90;99.90;;;;;;5075713;28;20444;-87
2022/02/17 07:42:33;;;;;;;36.80;24.17;;;6.90;99.90;;;;;;5075914;28;20207;-87
2022/02/17 07:45:00;;;;;;;38.13;25.20;;;7.00;99.90;;;;;;5077341;28;20184;-87
2022/02/17 07:47:26;;;;;;;37.10;26.83;;;7.00;99.90;;;;;;5075176;28;20295;-87
2022/02/17 07:49:54;;;;;;;43.75;24.80;;;7.10;99.90;;;;;;5074928;28;20667;-91
2022/02/17 07:52:27;;;;;;;44.65;29.38;;;7.20;99.90;;;;;;5107030;28;20217;-91
2022/02/17 07:54:52;;;;;;;31.35;18.08;;;7.30;99.90;;;;;;5095211;28;20212;-86
2022/02/17 07:57:18;;;;;;;41.47;26.63;;;7.40;99.90;;;;;;5077175;28;20250;-91
2022/02/17 07:59:44;;;;;;;29.73;20.45;;;7.50;99.90;;;;;;5085869;28;20425;-91
2022/02/17 08:02:10;;;;;;;35.83;24.40;;;7.60;99.90;;;;;;5092143;28;20204;-91
2022/02/17 08:04:36;;;;;;;35.57;23.20;;;7.60;99.90;;;;;;5095104;28;20504;-90
2022/02/17 08:07:05;;;;;;;26.97;17.63;;;7.70;99.90;;;;;;5095586;28;20417;-87
2022/02/17 08:09:32;;;;;;;32.10;21.42;;;7.80;99.90;;;;;;5076784;28;20740;-89
2022/02/17 08:11:58;;;;;;;28.85;18.23;;;7.90;99.90;;;;;;5074828;28;20191;-92
2022/02/17 08:14:24;;;;;;;18.40;13.00;;;8.00;99.90;;;;;;5090944;28;20208;-87
2022/02/17 08:16:49;;;;;;;30.37;20.50;;;8.00;99.90;;;;;;5091989;28;20395;-89
2022/02/17 08:19:15;;;;;;;27.80;18.00;;;8.10;99.90;;;;;;5082340;28;20200;-88
2022/02/17 08:21:41;;;;;;;29.83;21.60;;;8.10;99.90;;;;;;5092961;28;20562;-86
2022/02/17 08:24:07;;;;;;;30.73;20.33;;;8.20;99.90;;;;;;5081733;28;20197;-91
2022/02/17 08:26:32;;;;;;;31.58;20.73;;;8.20;99.90;;;;;;5076406;28;20188;-87
2022/02/17 08:28:59;;;;;;;28.80;18.60;;;8.30;99.90;;;;;;5076209;28;20196;-91
2022/02/17 08:31:28;;;;;;;31.60;20.48;;;8.30;99.90;;;;;;5077622;28;20190;-88
2022/02/17 08:33:54;;;;;;;30.20;20.88;;;8.40;99.90;;;;;;5104287;28;20234;-91
2022/02/17 08:36:21;;;;;;;31.52;18.88;;;8.40;99.90;;;;;;5077185;28;20180;-92
2022/02/17 08:38:47;;;;;;;27.75;18.60;;;8.50;99.90;;;;;;5082822;28;20211;-90
2022/02/17 08:41:13;;;;;;;26.23;18.47;;;8.50;99.90;;;;;;5081908;28;20196;-87
2022/02/17 08:43:39;;;;;;;26.43;17.37;;;8.60;99.90;;;;;;5093418;28;20227;-91
2022/02/17 08:46:04;;;;;;;21.58;17.67;;;8.70;99.90;;;;;;5077351;28;20436;-90
2022/02/17 08:48:30;;;;;;;21.47;13.30;;;8.80;99.90;;;;;;5071061;28;20197;-87
2022/02/17 08:50:57;;;;;;;26.30;18.17;;;8.80;99.90;;;;;;5082617;28;20184;-87
2022/02/17 08:53:23;;;;;;;21.75;13.93;;;8.90;99.90;;;;;;5092552;28;20455;-91
2022/02/17 08:55:49;;;;;;;22.73;16.98;;;9.00;99.90;;;;;;5098921;28;20579;-91
2022/02/17 08:58:15;;;;;;;22.67;15.63;;;9.10;99.90;;;;;;5084286;28;20204;-87
2022/02/17 09:00:41;;;;;;;27.53;18.47;;;9.10;99.90;;;;;;5088072;28;20176;-91
2022/02/17 09:03:11;;;;;;;27.43;16.33;;;9.20;99.90;;;;;;5091507;28;20941;-87
2022/02/17 09:05:40;;;;;;;25.40;15.18;;;9.20;99.90;;;;;;5104099;28;20214;-90
2022/02/17 09:08:07;;;;;;;20.45;14.93;;;9.30;99.90;;;;;;5096804;28;20193;-91
2022/02/17 09:10:33;;;;;;;22.70;17.05;;;9.40;99.90;;;;;;5078300;28;20670;-91
2022/02/17 09:12:59;;;;;;;21.27;15.07;;;9.40;99.90;;;;;;5095342;28;20224;-92
2022/02/17 09:15:25;;;;;;;22.43;16.40;;;9.50;99.90;;;;;;5093858;28;20598;-91
2022/02/17 09:17:50;;;;;;;19.57;14.70;;;9.60;99.90;;;;;;5078024;28;20208;-87
2022/02/17 09:20:16;;;;;;;20.77;16.37;;;9.80;99.90;;;;;;5099249;28;20207;-87
2022/02/17 09:22:43;;;;;;;21.02;16.08;;;10.00;99.90;;;;;;5094790;28;20222;-87
2022/02/17 09:25:09;;;;;;;20.98;15.15;;;10.10;99.90;;;;;;5093801;28;20195;-91
2022/02/17 09:27:35;;;;;;;19.35;15.45;;;10.20;99.90;;;;;;5076740;28;20669;-87
2022/02/17 09:30:03;;;;;;;25.83;13.70;;;10.30;99.90;;;;;;5076739;28;20181;-91
2022/02/17 09:32:29;;;;;;;19.55;14.80;;;10.40;99.90;;;;;;5095994;28;20501;-91
2022/02/17 09:34:55;;;;;;;20.80;15.68;;;10.60;99.90;;;;;;5077902;28;20208;-86
2022/02/17 09:37:21;;;;;;;18.70;13.90;;;10.90;99.90;;;;;;5096427;28;20695;-87
2022/02/17 09:39:53;;;;;;;20.50;15.30;;;11.10;99.90;;;;;;5075949;28;20249;-86
2022/02/17 09:42:19;;;;;;;19.02;16.00;;;11.50;99.90;;;;;;5093601;28;20302;-91
2022/02/17 09:44:45;;;;;;;18.07;14.13;;;12.10;99.90;;;;;;5074422;28;20274;-91
2022/02/17 09:47:12;;;;;;;21.35;16.13;;;12.50;99.90;;;;;;5093118;28;21020;-87
2022/02/17 09:49:42;;;;;;;23.25;16.65;;;12.70;99.90;;;;;;5099187;28;20575;-91
2022/02/17 09:52:09;;;;;;;21.60;15.70;;;12.80;99.90;;;;;;5096548;28;20189;-91
2022/02/17 09:54:35;;;;;;;19.65;16.27;;;12.70;99.90;;;;;;5076951;28;20552;-91
2022/02/17 09:57:01;;;;;;;21.17;17.88;;;12.50;99.90;;;;;;5092443;28;20496;-87
2022/02/17 09:59:28;;;;;;;24.03;17.93;;;12.40;99.90;;;;;;5090761;28;20263;-91
2022/02/17 10:01:55;;;;;;;20.80;17.23;;;12.40;99.90;;;;;;5092496;28;20647;-92
2022/02/17 10:04:22;;;;;;;20.87;17.00;;;12.70;99.90;;;;;;5096110;28;20452;-87
2022/02/17 10:06:53;;;;;;;22.27;16.70;;;13.10;99.90;;;;;;5082204;28;20421;-92
2022/02/17 10:09:20;;;;;;;28.73;22.20;;;13.50;99.90;;;;;;5091565;28;20433;-91
2022/02/17 10:11:48;;;;;;;23.53;17.70;;;13.90;99.90;;;;;;5093643;28;20456;-91
2022/02/17 10:14:18;;;;;;;21.30;16.80;;;14.20;99.90;;;;;;5098664;28;20468;-91
2022/02/17 10:16:59;;;;;;;21.10;17.17;;;14.40;99.90;;;;;;5093132;28;20416;-87
2022/02/17 10:19:27;;;;;;;26.60;20.90;;;14.40;99.90;;;;;;5077424;28;20807;-92
2022/02/17 10:22:05;;;;;;;16.80;13.00;;;14.40;99.90;;;;;;5094895;28;20520;-91
2022/02/17 10:24:39;;;;;;;21.83;14.77;;;14.30;99.90;;;;;;5097673;28;20425;-87
2022/02/17 10:27:16;;;;;;;19.70;14.87;;;14.00;99.90;;;;;;5083131;28;20453;-91
2022/02/17 10:29:59;;;;;;;18.63;14.20;;;13.80;99.90;;;;;;5070632;28;20433;-87
2022/02/17 10:32:26;;;;;;;19.00;14.20;;;13.80;99.90;;;;;;5090705;28;20866;-86
2022/02/17 10:35:21;;;;;;;17.47;13.63;;;13.90;99.90;;;;;;5071160;28;20548;-92
2022/02/17 10:37:49;;;;;;;15.70;13.30;;;13.80;99.90;;;;;;5074333;28;20464;-92
2022/02/17 10:40:25;;;;;;;16.50;12.97;;;13.80;99.90;;;;;;5081689;28;20456;-92
2022/02/17 10:43:06;;;;;;;27.27;18.57;;;13.90;99.90;;;;;;5077360;28;20449;-92
2022/02/17 10:45:32;;;;;;;14.87;12.20;;;13.90;99.90;;;;;;5078129;28;20454;-91
2022/02/17 10:48:18;;;;;;;15.10;10.83;;;14.00;99.90;;;;;;5091733;28;20436;-91
2022/02/17 10:51:03;;;;;;;13.40;9.50;;;14.10;99.90;;;;;;5091551;28;20432;-88
2022/02/17 10:53:30;;;;;;;20.30;10.30;;;14.20;99.90;;;;;;5075711;28;20457;-87
2022/02/17 10:56:03;;;;;;;12.87;10.67;;;14.40;98.90;;;;;;5079272;28;20496;-92
2022/02/17 10:58:37;;;;;;;13.63;10.83;;;14.40;98.30;;;;;;5075219;28;20805;-87
2022/02/17 11:01:05;;;;;;;11.20;9.40;;;14.50;97.40;;;;;;5073741;28;20459;-92
2022/02/17 11:03:33;;;;;;;13.83;7.70;;;14.60;97.30;;;;;;5070548;28;20548;-91
2022/02/17 11:06:03;;;;;;;17.17;9.73;;;14.70;96.80;;;;;;5069967;28;20583;-91
2022/02/17 11:08:29;;;;;;;14.40;8.40;;;14.80;96.70;;;;;;5074241;28;20453;-87
2022/02/17 11:10:59;;;;;;;10.93;8.53;;;14.80;96.10;;;;;;5078554;28;20432;-89
2022/02/17 11:13:26;;;;;;;14.50;7.20;;;15.00;96.00;;;;;;5073647;28;20559;-87
2022/02/17 11:15:56;;;;;;;12.60;8.80;;;15.00;95.30;;;;;;5076411;28;20472;-91
2022/02/17 11:18:23;;;;;;;11.90;8.67;;;15.10;95.90;;;;;;5079126;28;20858;-87
2022/02/17 11:20:53;;;;;;;12.27;7.70;;;15.00;95.60;;;;;;5088986;28;20445;-91
2022/02/17 11:23:19;;;;;;;10.40;8.30;;;15.00;95.50;;;;;;5071392;28;20486;-90
2022/02/17 11:25:47;;;;;;;15.57;7.97;;;14.90;95.50;;;;;;5075852;28;21071;-91
2022/02/17 11:28:15;;;;;;;14.93;7.97;;;14.90;95.30;;;;;;5098115;28;20429;-85
2022/02/17 11:30:44;;;;;;;16.13;8.77;;;14.90;94.80;;;;;;5071757;28;20433;-90
2022/02/17 11:33:23;;;;;;;11.80;8.60;;;14.80;95.00;;;;;;5071608;28;20467;-85
2022/02/17 11:35:50;;;;;;;13.07;7.57;;;14.90;95.00;;;;;;5072156;28;20654;-90
2022/02/17 11:38:33;;;;;;;15.83;8.33;;;15.00;94.60;;;;;;5089961;28;20689;-85
2022/02/17 11:41:00;;;;;;;13.97;6.97;;;15.10;94.20;;;;;;5071968;28;20436;-91
2022/02/17 11:43:34;;;;;;;11.00;6.47;;;15.20;93.90;;;;;;5070618;28;20608;-90
2022/02/17 11:45:59;;;;;;;5.77;4.70;;;15.30;93.80;;;;;;5076229;28;20447;-86
2022/02/17 11:48:33;;;;;;;8.73;4.93;;;15.30;93.20;;;;;;5087380;28;20403;-86
2022/02/17 11:51:15;;;;;;;10.77;5.70;;;15.30;92.90;;;;;;5086412;28;20176;-85
2022/02/17 11:53:46;;;;;;;16.83;6.10;;;15.40;92.90;;;;;;5061360;28;20497;-90
2022/02/17 11:56:18;;;;;;;6.97;4.80;;;15.40;92.50;;;;;;5081725;28;20522;-91
2022/02/17 11:58:55;;;;;;;7.57;4.23;;;15.50;91.90;;;;;;5096147;28;20433;-91
2022/02/17 12:01:30;;;;;;;6.20;4.30;;;15.60;91.40;;;;;;5079453;28;20428;-91
2022/02/17 12:04:15;;;;;;;7.47;4.03;;;15.70;91.40;;;;;;5094928;28;20460;-91
2022/02/17 12:06:43;;;;;;;8.83;4.60;;;15.80;91.10;;;;;;5083394;28;20432;-91
2022/02/17 12:09:09;;;;;;;15.33;4.53;;;15.80;90.70;;;;;;5094999;28;20463;-91
2022/02/17 12:11:41;;;;;;;8.07;5.10;;;15.80;90.80;;;;;;5092380;28;20409;-91
2022/02/17 12:14:08;;;;;;;12.57;5.30;;;15.90;90.70;;;;;;5092379;28;20461;-87
2022/02/17 12:16:37;;;;;;;9.13;3.70;;;16.00;90.70;;;;;;5086352;28;20429;-87
2022/02/17 12:19:14;;;;;;;10.87;3.17;;;16.00;90.30;;;;;;5093868;28;20440;-91
2022/02/17 12:21:41;;;;;;;6.63;3.67;;;16.00;90.80;;;;;;5092325;28;20834;-86
2022/02/17 12:24:09;;;;;;;4.27;2.73;;;16.00;90.20;;;;;;5092701;28;20432;-87
2022/02/17 12:26:44;;;;;;;13.00;4.53;;;16.00;90.00;;;;;;5090827;28;20452;-91
2022/02/17 12:29:23;;;;;;;5.87;3.50;;;16.00;90.10;;;;;;5096115;28;20440;-88
2022/02/17 12:31:52;;;;;;;7.87;3.20;;;16.00;90.20;;;;;;5090928;28;20493;-93
2022/02/17 12:34:18;;;;;;;10.37;3.17;;;16.00;90.10;;;;;;5085445;28;20942;-90
2022/02/17 12:36:44;;;;;;;8.10;2.93;;;16.10;89.50;;;;;;5088815;28;20455;-91
2022/02/17 12:39:10;;;;;;;10.90;3.37;;;16.10;89.10;;;;;;5094475;28;20185;-91
2022/02/17 12:41:36;;;;;;;5.63;2.90;;;16.20;89.20;;;;;;5093898;28;20468;-91